createdAt,value
2023-07-12T00:02:02.999Z,20.88
2023-07-12T00:05:05.312Z,20.87
2023-07-12T00:08:16.233Z,20.84
2023-07-12T00:11:21.074Z,20.81
2023-07-12T00:14:22.656Z,20.79
2023-07-12T00:17:24.273Z,20.77
2023-07-12T00:20:33.546Z,20.77
2023-07-12T00:23:35.133Z,20.75
2023-07-12T00:26:37.883Z,20.74
2023-07-12T00:29:39.612Z,20.71
2023-07-12T00:32:41.609Z,20.70
2023-07-12T00:35:43.361Z,20.69
2023-07-12T00:38:45.075Z,20.69
2023-07-12T00:42:09.610Z,20.67
2023-07-12T00:45:13.232Z,20.65
2023-07-12T00:48:15.732Z,20.62
2023-07-12T00:51:30.886Z,20.61
2023-07-12T00:54:54.118Z,20.60
2023-07-12T00:57:55.849Z,20.59
2023-07-12T01:00:59.618Z,20.59
2023-07-12T01:04:03.640Z,20.59
2023-07-12T01:07:05.429Z,20.58
2023-07-12T01:10:08.794Z,20.56
2023-07-12T01:13:11.603Z,20.55
2023-07-12T01:16:17.893Z,20.54
2023-07-12T01:19:20.328Z,20.52
2023-07-12T01:22:22.015Z,20.50
2023-07-12T01:25:33.740Z,20.49
2023-07-12T01:28:35.352Z,20.47
2023-07-12T01:31:40.444Z,20.45
2023-07-12T01:34:42.161Z,20.43
2023-07-12T01:37:43.868Z,20.41
2023-07-12T01:40:45.443Z,20.39
2023-07-12T01:43:47.280Z,20.37
2023-07-12T01:46:49.070Z,20.35
2023-07-12T01:49:50.693Z,20.32
2023-07-12T01:52:52.313Z,20.32
2023-07-12T01:55:55.983Z,20.29
2023-07-12T01:58:57.669Z,20.27
2023-07-12T02:01:59.402Z,20.26
2023-07-12T02:05:01.213Z,20.24
2023-07-12T02:08:03.006Z,20.23
2023-07-12T02:11:04.775Z,20.21
2023-07-12T02:14:06.470Z,20.20
2023-07-12T02:17:09.316Z,20.18
2023-07-12T02:20:12.515Z,20.17
2023-07-12T02:23:14.433Z,20.15
2023-07-12T02:26:16.069Z,20.14
2023-07-12T02:29:17.888Z,20.14
2023-07-12T02:32:21.434Z,20.13
2023-07-12T02:35:28.317Z,20.12
2023-07-12T02:38:29.897Z,20.11
2023-07-12T02:41:31.578Z,20.11
2023-07-12T02:44:33.134Z,20.11
2023-07-12T02:47:35.371Z,20.10
2023-07-12T02:50:37.115Z,20.11
2023-07-12T02:53:40.430Z,20.12
2023-07-12T02:56:43.086Z,20.13
2023-07-12T02:59:44.737Z,20.15
2023-07-12T03:02:46.336Z,20.16
2023-07-12T03:05:47.983Z,20.17
2023-07-12T03:08:49.741Z,20.18
2023-07-12T03:11:51.389Z,20.19
2023-07-12T03:14:53.284Z,20.21
2023-07-12T03:17:54.948Z,20.23
2023-07-12T03:21:01.518Z,20.24
2023-07-12T03:24:03.481Z,20.25
2023-07-12T03:27:05.644Z,20.26
2023-07-12T03:30:07.906Z,20.27
2023-07-12T03:33:09.534Z,20.29
2023-07-12T03:36:11.343Z,20.31
2023-07-12T03:39:13.271Z,20.34
2023-07-12T03:42:14.920Z,20.35
2023-07-12T03:45:16.620Z,20.37
2023-07-12T03:48:18.562Z,20.39
2023-07-12T03:51:23.225Z,20.41
2023-07-12T03:54:24.925Z,20.44
2023-07-12T03:57:26.698Z,20.46
2023-07-12T04:00:28.442Z,20.50
2023-07-12T04:03:30.815Z,20.54
2023-07-12T04:06:33.175Z,20.58
2023-07-12T04:09:34.873Z,20.62
2023-07-12T04:12:36.681Z,20.66
2023-07-12T04:15:38.554Z,20.69
2023-07-12T04:18:40.267Z,20.72
2023-07-12T04:21:41.938Z,20.75
2023-07-12T04:24:48.288Z,20.79
2023-07-12T04:27:49.932Z,20.83
2023-07-12T04:30:51.696Z,20.86
2023-07-12T04:33:53.440Z,20.89
2023-07-12T04:36:55.045Z,20.92
2023-07-12T04:39:57.285Z,20.95
2023-07-12T04:42:58.974Z,20.98
2023-07-12T04:46:01.052Z,21.01
2023-07-12T04:49:02.595Z,21.04
2023-07-12T04:52:05.149Z,21.07
2023-07-12T04:55:21.821Z,21.10
2023-07-12T04:58:24.033Z,21.11
2023-07-12T05:01:25.808Z,21.14
2023-07-12T05:04:27.905Z,21.17
2023-07-12T05:07:31.814Z,21.21
2023-07-12T05:10:33.776Z,21.27
2023-07-12T05:13:35.417Z,21.33
2023-07-12T05:16:37.671Z,21.38
2023-07-12T05:19:39.327Z,21.44
2023-07-12T05:22:42.355Z,21.49
2023-07-12T05:25:54.600Z,21.55
2023-07-12T05:28:57.026Z,21.58
2023-07-12T05:31:58.712Z,21.63
2023-07-12T05:35:00.710Z,21.67
2023-07-12T05:38:03.152Z,21.70
2023-07-12T05:41:05.029Z,21.74
2023-07-12T05:44:06.710Z,21.77
2023-07-12T05:47:08.406Z,21.80
2023-07-12T05:50:12.736Z,21.83
2023-07-12T05:53:14.380Z,21.84
2023-07-12T05:56:16.005Z,21.83
2023-07-12T05:59:19.373Z,21.82
2023-07-12T06:02:21.221Z,21.81
2023-07-12T06:05:22.915Z,21.80
2023-07-12T06:08:25.960Z,21.80
2023-07-12T06:11:27.587Z,21.81
2023-07-12T06:14:29.327Z,21.83
2023-07-12T06:17:32.119Z,21.84
2023-07-12T06:20:33.888Z,21.87
2023-07-12T06:23:36.429Z,21.93
2023-07-12T06:26:38.082Z,21.98
2023-07-12T06:29:46.218Z,22.04
2023-07-12T06:32:47.900Z,22.13
2023-07-12T06:35:49.654Z,22.22
2023-07-12T06:38:51.352Z,22.31
2023-07-12T06:41:53.014Z,22.38
2023-07-12T06:44:54.735Z,22.46
2023-07-12T06:47:56.547Z,22.54
2023-07-12T06:50:58.730Z,22.61
2023-07-12T06:54:00.753Z,22.68
2023-07-12T06:57:02.654Z,22.74
2023-07-12T07:00:10.084Z,22.82
2023-07-12T07:03:14.432Z,22.90
2023-07-12T07:06:18.059Z,22.99
2023-07-12T07:09:20.075Z,23.08
2023-07-12T07:12:22.195Z,23.15
2023-07-12T07:15:23.985Z,23.23
2023-07-12T07:18:26.351Z,23.29
2023-07-12T07:21:28.012Z,23.35
2023-07-12T07:24:29.913Z,23.40
2023-07-12T07:27:31.788Z,23.50
2023-07-12T07:30:33.454Z,23.69
2023-07-12T07:33:38.209Z,23.90
2023-07-12T07:36:40.085Z,24.13
2023-07-12T07:39:42.189Z,24.32
2023-07-12T07:42:49.052Z,24.43
2023-07-12T07:45:53.677Z,24.48
2023-07-12T07:48:55.544Z,24.52
2023-07-12T07:51:57.395Z,24.53
2023-07-12T07:54:59.947Z,24.53
2023-07-12T07:58:02.189Z,24.53
2023-07-12T08:01:03.798Z,24.58
2023-07-12T08:04:09.774Z,24.68
2023-07-12T08:07:12.725Z,24.86
2023-07-12T08:10:17.982Z,25.13
2023-07-12T08:13:20.069Z,25.42
2023-07-12T08:16:21.831Z,25.62
2023-07-12T08:19:23.629Z,25.71
2023-07-12T08:22:25.790Z,25.77
2023-07-12T08:25:27.581Z,25.85
2023-07-12T08:28:29.313Z,25.96
2023-07-12T08:31:31.356Z,26.02
2023-07-12T08:34:33.223Z,26.02
2023-07-12T08:37:34.983Z,25.95
2023-07-12T08:40:41.906Z,25.87
2023-07-12T08:43:44.702Z,25.79
2023-07-12T08:46:56.409Z,25.70
2023-07-12T08:49:58.717Z,25.61
2023-07-12T08:53:00.824Z,25.53
2023-07-12T08:56:05.040Z,25.45
2023-07-12T08:59:14.043Z,25.37
2023-07-12T09:02:22.713Z,25.29
2023-07-12T09:05:25.377Z,25.21
2023-07-12T09:08:36.411Z,25.14
2023-07-12T09:11:39.872Z,25.06
2023-07-12T09:14:41.629Z,24.99
2023-07-12T09:17:45.482Z,24.91
2023-07-12T09:20:51.264Z,24.85
2023-07-12T09:23:59.606Z,24.79
2023-07-12T09:27:06.674Z,24.75
2023-07-12T09:30:08.803Z,24.71
2023-07-12T09:33:19.304Z,24.66
2023-07-12T09:36:28.253Z,24.62
2023-07-12T09:39:30.124Z,24.57
2023-07-12T09:42:31.955Z,24.52
2023-07-12T09:45:36.163Z,24.49
2023-07-12T09:48:52.843Z,24.48
2023-07-12T09:52:06.372Z,24.51
2023-07-12T09:55:24.317Z,24.55
2023-07-12T09:58:36.280Z,24.63
2023-07-12T10:01:49.448Z,24.74
2023-07-12T10:04:55.957Z,24.99
2023-07-12T10:08:15.594Z,25.27
2023-07-12T10:11:27.641Z,25.62
2023-07-12T10:14:37.422Z,26.00
2023-07-12T10:17:42.904Z,26.35
2023-07-12T10:20:46.617Z,26.59
2023-07-12T10:23:58.798Z,26.87
2023-07-12T10:27:05.091Z,27.20
2023-07-12T10:30:15.478Z,27.50
2023-07-12T10:33:28.091Z,27.79
2023-07-12T10:36:30.912Z,28.03
2023-07-12T10:39:33.112Z,28.09
2023-07-12T10:42:47.357Z,28.12
2023-07-12T10:45:51.972Z,28.18
2023-07-12T10:48:55.641Z,28.20
2023-07-12T10:52:11.833Z,28.19
2023-07-12T10:55:19.653Z,28.11
2023-07-12T10:58:22.776Z,28.00
2023-07-12T11:01:46.560Z,27.88
2023-07-12T11:04:49.824Z,27.76
2023-07-12T11:07:54.674Z,27.67
2023-07-12T11:10:59.943Z,27.58
2023-07-12T11:14:25.338Z,27.46
2023-07-12T11:17:29.605Z,27.35
2023-07-12T11:21:02.496Z,27.24
2023-07-12T11:24:26.550Z,27.11
2023-07-12T11:27:38.683Z,27.01
2023-07-12T11:30:44.349Z,26.93
2023-07-12T11:34:15.471Z,26.87
2023-07-12T11:37:25.804Z,26.83
2023-07-12T11:40:36.315Z,26.81
2023-07-12T11:43:38.544Z,26.81
2023-07-12T11:46:42.402Z,26.84
2023-07-12T11:49:45.712Z,26.86
2023-07-12T11:52:48.872Z,26.89
2023-07-12T11:55:50.937Z,26.96
2023-07-12T11:58:52.922Z,27.05
2023-07-12T12:01:54.704Z,27.11
2023-07-12T12:04:59.887Z,27.10
2023-07-12T12:08:07.003Z,27.06
2023-07-12T12:11:11.679Z,26.99
2023-07-12T12:14:24.704Z,26.96
2023-07-12T12:17:36.917Z,27.01
2023-07-12T12:20:51.515Z,27.06
2023-07-12T12:23:58.608Z,27.11
2023-07-12T12:27:11.732Z,27.22
2023-07-12T12:30:29.805Z,27.29
2023-07-12T12:33:31.663Z,27.26
2023-07-12T12:36:34.013Z,27.27
2023-07-12T12:39:36.931Z,27.27
2023-07-12T12:43:02.072Z,27.21
2023-07-12T12:53:29.343Z,27.00
2023-07-12T13:05:30.692Z,26.74
2023-07-12T13:18:12.467Z,26.78
2023-07-12T13:21:19.860Z,26.80
2023-07-12T13:24:21.835Z,26.82
2023-07-12T13:27:31.098Z,26.81
2023-07-12T13:30:38.480Z,26.80
2023-07-12T13:33:40.403Z,26.77
2023-07-12T13:36:45.678Z,26.73
2023-07-12T13:39:48.060Z,26.70
2023-07-12T13:42:57.986Z,26.68
2023-07-12T13:46:01.582Z,26.66
2023-07-12T13:49:03.953Z,26.63
2023-07-12T13:52:06.249Z,26.63
2023-07-12T13:55:13.741Z,26.63
2023-07-12T13:58:15.562Z,26.64
2023-07-12T14:04:23.832Z,26.75
2023-07-12T14:10:37.021Z,26.84
2023-07-12T14:13:38.725Z,26.92
2023-07-12T14:16:40.519Z,27.06
2023-07-12T14:19:44.577Z,27.22
2023-07-12T14:22:46.402Z,27.35
2023-07-12T14:25:48.056Z,27.41
2023-07-12T14:28:55.458Z,27.43
2023-07-12T14:31:58.365Z,27.42
2023-07-12T14:35:02.070Z,27.39
2023-07-12T14:38:10.045Z,27.33
2023-07-12T14:41:26.360Z,27.31
2023-07-12T14:44:27.995Z,27.33
2023-07-12T14:47:29.613Z,27.34
2023-07-12T14:50:31.290Z,27.31
2023-07-12T14:53:33.013Z,27.26
2023-07-12T14:56:34.604Z,27.23
2023-07-12T14:59:36.515Z,27.23
2023-07-12T15:02:39.809Z,27.24
2023-07-12T15:05:41.551Z,27.26
2023-07-12T15:08:45.906Z,27.28
2023-07-12T15:12:06.874Z,27.26
2023-07-12T15:15:13.170Z,27.23
2023-07-12T15:18:18.325Z,27.20
2023-07-12T15:21:30.937Z,27.17
2023-07-12T15:24:32.624Z,27.14
2023-07-12T15:27:37.415Z,27.09
2023-07-12T15:30:40.433Z,27.05
2023-07-12T15:33:42.141Z,27.00
2023-07-12T15:36:43.811Z,26.97
2023-07-12T15:39:45.822Z,26.94
2023-07-12T15:42:48.727Z,26.93
2023-07-12T15:45:50.951Z,26.93
2023-07-12T15:48:56.992Z,26.93
2023-07-12T15:51:58.694Z,26.94
2023-07-12T15:55:00.634Z,26.93
2023-07-12T15:58:02.423Z,26.91
2023-07-12T16:01:05.429Z,26.89
2023-07-12T16:04:07.421Z,26.86
2023-07-12T16:07:12.803Z,26.82
2023-07-12T16:10:15.219Z,26.78
2023-07-12T16:13:23.476Z,26.74
2023-07-12T16:16:28.564Z,26.69
2023-07-12T16:19:30.464Z,26.64
2023-07-12T16:22:32.225Z,26.58
2023-07-12T16:25:33.837Z,26.54
2023-07-12T16:28:36.195Z,26.49
2023-07-12T16:31:52.326Z,26.43
2023-07-12T16:34:54.029Z,26.39
2023-07-12T16:37:55.796Z,26.34
2023-07-12T16:41:05.290Z,26.30
2023-07-12T16:44:17.188Z,26.26
2023-07-12T16:47:18.881Z,26.23
2023-07-12T16:50:20.553Z,26.21
2023-07-12T16:53:42.568Z,26.18
2023-07-12T16:56:44.194Z,26.16
2023-07-12T16:59:51.046Z,26.14
2023-07-12T17:02:54.063Z,26.11
2023-07-12T17:05:57.234Z,26.09
2023-07-12T17:08:58.858Z,26.07
2023-07-12T17:12:00.573Z,26.05
2023-07-12T17:15:03.447Z,26.03
2023-07-12T17:18:05.187Z,26.00
2023-07-12T17:21:16.542Z,25.96
2023-07-12T17:24:18.586Z,25.92
2023-07-12T17:27:22.588Z,25.88
2023-07-12T17:30:24.256Z,25.84
2023-07-12T17:33:28.501Z,25.79
2023-07-12T17:36:30.506Z,25.75
2023-07-12T17:39:33.101Z,25.69
2023-07-12T17:42:35.292Z,25.64
2023-07-12T17:45:36.932Z,25.59
2023-07-12T17:48:40.299Z,25.55
2023-07-12T17:51:42.169Z,25.50
2023-07-12T17:54:44.728Z,25.45
2023-07-12T17:57:46.429Z,25.41
2023-07-12T18:00:53.055Z,25.36
2023-07-12T18:03:54.819Z,25.32
2023-07-12T18:06:57.511Z,25.26
2023-07-12T18:09:59.864Z,25.22
2023-07-12T18:13:01.625Z,25.18
2023-07-12T18:16:03.473Z,25.13
2023-07-12T18:19:05.706Z,25.09
2023-07-12T18:22:19.932Z,25.05
2023-07-12T18:25:23.492Z,25.02
2023-07-12T18:28:25.363Z,24.98
2023-07-12T18:31:30.306Z,24.95
2023-07-12T18:34:32.146Z,24.93
2023-07-12T18:37:34.221Z,24.91
2023-07-12T18:40:36.782Z,24.90
2023-07-12T18:43:39.466Z,24.87
2023-07-12T18:46:45.066Z,24.84
2023-07-12T18:49:52.407Z,24.81
2023-07-12T18:52:55.503Z,24.79
2023-07-12T18:55:57.250Z,24.76
2023-07-12T18:59:00.225Z,24.73
2023-07-12T19:02:02.314Z,24.69
2023-07-12T19:05:23.124Z,24.65
2023-07-12T19:08:24.859Z,24.60
2023-07-12T19:11:35.162Z,24.56
2023-07-12T19:14:37.651Z,24.51
2023-07-12T19:17:40.509Z,24.47
2023-07-12T19:20:42.300Z,24.42
2023-07-12T19:23:43.989Z,24.39
2023-07-12T19:26:45.731Z,24.35
2023-07-12T19:29:48.567Z,24.31
2023-07-12T19:32:50.493Z,24.28
2023-07-12T19:35:52.194Z,24.27
2023-07-12T19:38:55.847Z,24.26
2023-07-12T19:41:58.490Z,24.23
2023-07-12T19:45:00.199Z,24.20
2023-07-12T19:48:01.960Z,24.17
2023-07-12T19:51:14.214Z,24.15
2023-07-12T19:54:18.229Z,24.12
2023-07-12T19:57:20.629Z,24.10
2023-07-12T20:00:24.933Z,24.09
2023-07-12T20:03:26.617Z,24.08
2023-07-12T20:06:28.900Z,24.06
2023-07-12T20:09:30.491Z,24.04
2023-07-12T20:12:32.230Z,24.02
2023-07-12T20:15:33.933Z,24.01
2023-07-12T20:18:36.709Z,23.99
2023-07-12T20:21:39.371Z,23.97
2023-07-12T20:24:41.142Z,23.94
2023-07-12T20:27:42.829Z,23.93
2023-07-12T20:30:46.086Z,23.92
2023-07-12T20:33:47.789Z,23.90
2023-07-12T20:36:52.779Z,23.89
2023-07-12T20:39:54.427Z,23.86
2023-07-12T20:42:56.119Z,23.85
2023-07-12T20:46:00.057Z,23.84
2023-07-12T20:49:03.586Z,23.83
2023-07-12T20:52:08.622Z,23.81
2023-07-12T20:55:10.267Z,23.80
2023-07-12T20:58:11.873Z,23.80
2023-07-12T21:01:17.114Z,23.79
2023-07-12T21:04:18.855Z,23.78
2023-07-12T21:07:23.536Z,23.77
2023-07-12T21:10:25.266Z,23.77
2023-07-12T21:13:28.003Z,23.76
2023-07-12T21:16:30.034Z,23.74
2023-07-12T21:19:31.777Z,23.72
2023-07-12T21:22:33.574Z,23.72
2023-07-12T21:25:35.291Z,23.71
2023-07-12T21:28:37.379Z,23.71
2023-07-12T21:31:38.975Z,23.70
2023-07-12T21:34:40.743Z,23.71
2023-07-12T21:37:42.403Z,23.70
2023-07-12T21:40:44.356Z,23.68
2023-07-12T21:43:46.190Z,23.68
2023-07-12T21:46:47.856Z,23.67
2023-07-12T21:49:49.734Z,23.67
2023-07-12T21:52:51.522Z,23.64
2023-07-12T21:55:53.186Z,23.62
2023-07-12T21:58:57.209Z,23.58
2023-07-12T22:01:58.940Z,23.55
2023-07-12T22:05:01.557Z,23.52
2023-07-12T22:08:03.417Z,23.48
2023-07-12T22:11:09.757Z,23.45
2023-07-12T22:14:11.550Z,23.41
2023-07-12T22:17:14.436Z,23.38
2023-07-12T22:20:18.736Z,23.36
2023-07-12T22:23:20.469Z,23.31
2023-07-12T22:26:28.835Z,23.27
2023-07-12T22:29:30.588Z,23.23
2023-07-12T22:32:32.254Z,23.20
2023-07-12T22:35:34.514Z,23.17
2023-07-12T22:38:36.947Z,23.14
2023-07-12T22:41:38.652Z,23.11
2023-07-12T22:44:40.621Z,23.09
2023-07-12T22:47:43.574Z,23.06
2023-07-12T22:50:47.332Z,23.04
2023-07-12T22:53:50.036Z,23.02
2023-07-12T22:56:52.120Z,23.00
2023-07-12T22:59:53.988Z,22.98
2023-07-12T23:02:55.743Z,22.96
2023-07-12T23:05:58.259Z,22.93
2023-07-12T23:08:59.927Z,22.92
2023-07-12T23:12:07.589Z,22.90
2023-07-12T23:15:11.637Z,22.87
2023-07-12T23:18:13.488Z,22.85
2023-07-12T23:21:17.056Z,22.82
2023-07-12T23:24:19.137Z,22.79
2023-07-12T23:27:20.792Z,22.76
2023-07-12T23:30:24.040Z,22.74
2023-07-12T23:33:25.728Z,22.71
2023-07-12T23:36:28.427Z,22.69
2023-07-12T23:39:30.528Z,22.67
2023-07-12T23:42:32.094Z,22.65
2023-07-12T23:45:37.232Z,22.64
2023-07-12T23:48:38.916Z,22.61
2023-07-12T23:51:41.261Z,22.59
2023-07-12T23:54:44.766Z,22.58
2023-07-12T23:57:46.722Z,22.56
